mercredi 30 avril 2014

ALERTE SPOTTING 30/04/14


320 F-GHQE Air Corsica (blanc avec titre)
   XK4501/xk4516  07h35/08h25

BEH F-GVLC Atlantique Air Assistance (blanc avec logo)
   dpt  CLG807F  08h15

143 D-AWUE WDL
   AF7335/AF7302  10h10/10h50
  arv  AF7307  14h00
 
LOH CN-AON Morocco Air Force
   dpt  RMAF  15h00

E95 EC-LFZ Air Europa (sticker)
   UX1025/UX1026  19h20/20h10

  Manque les prévisions de : certains AB / AH / AZ / BA / BE / IB / KM / TP / TU

*** Heures en Local Time **
Prévisions matinales soumises à modifications de dernières minute.
 Voir le log du mois pour la version 'définitive' de la journée: 
 http://www.airkalo.com/ORLYAVIATION/Logdumois.html

le TAF de la journée:


METAR: LFPO 300300Z 34006KT 8000 FEW023 SCT034 10/08 Q1010 TEMPO
3500 BR BKN008=
TAF LONG: AMD LFPO 300027Z 3000/0106 34007KT 6000 SCT008 BKN017 TEMPO
3000/3002 4000 -RA BKN008 BECMG 3002/3004 9999 SCT012 TEMPO 3002/3010
3500 BR BKN008 BECMG 3010/3012 SCT030 PROB30 TEMPO 3012/3018 SHRA
SCT040TCU BECMG 3016/3018 26005KT=  

mardi 29 avril 2014

ALERTE SPOTTING 29/04/14

320 D-ABDU Air Berlin / Etihad
   AB8454/AB8155  07h55/08h45

320 F-GHQE Air Corsica (blanc avec titre)
   XK4501/XK4500  07h35/08h30

73H TC-AZP Pegasus
   PC401/PC402  13h15/14h05




E95 EC-KYP Air Europa (sticker)
    UX1297/UX1298  16h40/

319 G-EZBF easyJet (couluer Inverness)
   U24248/U24249   19h55/20h30


 Manque les prévisions de : certains AB / AH / AZ / BA / BE / IB / KM / TP / TU
*** Heures en Local Time **
Prévisions matinales soumises à modifications de dernières minute.
 Voir le log du mois pour la version 'définitive' de la journée: 
 http://www.airkalo.com/ORLYAVIATION/Logdumois.html

le TAF de la journée:

METAR: LFPO 290230Z 21003KT 9999 MIFG NSC 08/07 Q1013 NOSIG=
TAF LONG: LFPO 282300Z 2900/3006 18004KT CAVOK BECMG 2900/2903 4000 BR
PROB30 TEMPO 2903/2908 0800 BCFG BECMG 2907/2909 9999 NSW TEMPO
2910/2918 4000 SHRA SCT015TCU TEMPO 2922/2924 -RA TEMPO 3003/3006
BKN006= 
 

lundi 28 avril 2014

ALERTE SPOTTING 28/04/14

320 F-GHQE Air Corsica (blanc avec titre)
    XK4501/XK4500  07h35/08h30


AT4 HB-AFF Farnair Europe
   A58222/A5221  08h15/08h55
   A5222/A58223  12h20/13h00

 Manque les prévisions de : certains AB / AH / AZ / BA / BE / IB / KM / TP / TU
*** Heures en Local Time **
Prévisions matinales soumises à modifications de dernières minute.
 Voir le log du mois pour la version 'définitive' de la journée: 
 http://www.airkalo.com/ORLYAVIATION/Logdumois.html

le TAF de la journée:
METAR: LFPO 280230Z 18004KT 9999 SCT007 BKN056 08/07 Q1007 TEMPO
BKN006=
TAF LONG: LFPO 272300Z 2800/2906 17006KT 9999 SCT008 BKN060 TEMPO 2800/2804
BKN008 TEMPO 2804/2809 RA BKN004 BECMG 2810/2812 SCT017 TEMPO
2812/2818 SHRA BKN015 TEMPO 2903/2906 3000 BR= 
  

vendredi 25 avril 2014

Saison été 2014 : les principales nouveautés (MàJ 25/04/14)

Le début de la saison aéronautique d'été arrive et annonce son lot de changement saisonnier notamment sur Orly. Voici les nouveautés, certaines ouvertures plus tardives restent prévisionnelles.


Mise à jour : 25/04/14


AIGLE AZUR ZI

28 juin : ouverture de la ligne régulière sur Pékin. repoussé


AIR FRANCE AF

30 mars: arrêt de la ligne saisonnière sur Barcelone.


ALITALIA / AIR ONE AZ/VE

La nouvelle ligne qui devait ouvrir sur xxx est finalement transférée à Roissy.


CITYJET WX

29 mars: arrêt des vols sur Nantes (repris par Hop/Airlinair).
30 mars: début des vols sur Cardiff et Londres City avec son propre numéro de vol WX (sous numéros de vol Air France auparavant).


CUBANA CU

18 avril: Fin de la ligne saisonnière sur Santa Clara.


EASYJET U2

30 mars : Retour de la ligne saisonnière sur Athènes, Palerme.
30 juin: Retour des lignes saisonnières sur Dubrovnik, Olbia
01 juillet : Retour des lignes saisonnières sur Brindisi, Mikonos, Rhodes.
02 juillet : Retour de la ligne saisonnière sur Cagliari.
03 juillet : Retour de la ligne saisonnière sur Lamezia Terme.


HOP / AIRLINAIR A5/AF

30 mars: début des vols sur Nantes (repris à Cityjet)


PULLMANTUR AIR PLM

vers le 19 avril: fin de la ligne saisonnière sur La Romana


ROYAL AIR MAROC AT

15 juin: ouverture de la ligne régulière sur Nador

SATA S4

25 avril: ouverture de la ligne sur Ponta Delgada


TRANSAVIA TO

10 avril : ouverture de la ligne régulière sur Tel Aviv (opérait quelques vols charters auparavant).
12 avril : ouverture des lignes régulières sur Athènes, Rome Fuimicino, Istanbul Sabiha
13 avril: ouverture des lignes régulières sur Malaga, Prague
14 avril: ouverture des lignes régulières sur Faro, Pise
15 avril: ouverture de la ligne régulière sur Budapest
15 mai : ouverture de ligne régulière sur Rabil, Cape Vert
23 mai : ouverture de la ligne sur Reykyavik
27 juin : retour de la ligne saisonnière sur Spit
04 juillet : ouverture de la ligne régulière sur Madrid
05 juillet : ouverture de la ligne régulière sur Zadar (Croatie).
07 juillet : ouverture de la ligne régulière sur Barcelone et
 retour de la ligne saisonnière sur Chania (Grève)
08 juillet : retour de la ligne saisonnière sur Larnaca, Rhodes.


VUELING VY

20 juin : ouverture de la ligne régulière sur Bologne
21 juin : ouverture de la ligne régulière sur Mahon/Menorca

* * * * * * * *
Tout sur l'aéroport d'Orly : (c) Airkalo.com

ALERTE SPOTTING 25/04/14

IL9 CU-T1250 Cubana
   CU440/CU441  08h25/10h50

320 F-GHQE Air Corsica (blanc avec titre)
  XK4511/XK4500  07h35/08h30
 
ABB F-GSTD Airbus Beluga
   dpt  10h00

74L A9C-HAK Bahrain
   dpt  BAH002  10h15

E95 EC-LFZ Air Europa (sticker)
   UX1223/UX1020  10h45/11h35

32A EC-LVP Vueling (couleur Linking Europe)
          dpt VY6250  06h45
       VY6251/VY8178  11h35/12h10
    VY8177/VY1981  16h35/17h40
  arv VY1982  22h55

 Manque les prévisions de : certains AB / AH / AZ / BA / BE / IB / KM / TP / TU
*** Heures en Local Time **
Prévisions matinales soumises à modifications de dernières minute.
 Voir le log du mois pour la version 'définitive' de la journée: 
 http://www.airkalo.com/ORLYAVIATION/Logdumois.html

le TAF de la journée:
*** avis d'orage de 07h00 à 14h00 ***
METAR: LFPO 250300Z 28004KT 2000 BR FEW013 BKN026 13/12 Q1009 NOSIG=
TAF LONG: AMD LFPO 250036Z 2500/2606 36006KT 4500 BR SCT010 BKN050 PROB30
TEMPO 2501/2503 2000 TSRA SCT030CB BKN060 TEMPO 2503/2509 4000 -RA
BKN008 BECMG 2509/2512 28010KT BKN015 TEMPO 2509/2521 4000 -SHRA
BKN012 SCT020TCU PROB30 TEMPO 2512/2516 27015G25KT 3000 -TSRA
SCT020CB BECMG 2521/2524 20006KT SCT010 TEMPO 2603/2606 7000 NSC= 
 

mercredi 23 avril 2014

ALERTE SPOTTING 23/04/14

744 CN-RGA RAM
   AT640/AT641   14h40/16h40

73H TC-AVP Pegasus (sticker Asia)
   PC873/PC874  17h40/18h30

320 F-GHQE Air Corsica (blanc avec titre)
   XK4501/XK4500   07h35/08h30

772 F-GSPT Air France
  arv AF374Y 10h40
32A EC-LVP Vueling (couleur Linking Europe)
          dpt VY1983 06h50
      VY1984/VY1985   12h05/12h45
   VY1986/VY2857   17h25/18h10
 arv  VY2856 21h25

 Manque les prévisions de : certains AB / AH / AZ / BA / BE / IB / KM / TP / TU
*** Heures en Local Time **
Prévisions matinales soumises à modifications de dernières minute.
 Voir le log du mois pour la version 'définitive' de la journée: 
 http://www.airkalo.com/ORLYAVIATION/Logdumois.html

le TAF de la journée:

METAR: LFPO 230230Z 00000KT 9000 R08/1300D MIFG NSC 09/09 Q1017
NOSIG=
TAF LONG: AMD LFPO 230108Z 2301/2406 22005KT 9999 SCT040 TEMPO 2301/2307
VRB02KT 4000 BR PROB40 TEMPO 2301/2306 0500 FG BKN003 TEMPO 2318/2321
-SHRA BKN030 TEMPO 2323/2406 4000 -RA SCT012 BKN025=